createdAt,value
2019-05-30T08:36:06.062Z,14.20
2019-05-30T08:38:37.046Z,14.40
2019-05-30T08:41:07.615Z,14.50
2019-05-30T08:43:37.637Z,14.80
2019-05-30T08:46:07.685Z,14.80
2019-05-30T08:48:38.359Z,15.00
2019-05-30T08:51:09.076Z,15.30
2019-05-30T08:53:39.111Z,15.40
2019-05-30T08:56:09.767Z,15.50
2019-05-30T08:58:40.933Z,15.60
2019-05-30T09:01:11.503Z,15.80
2019-05-30T09:03:42.172Z,15.90
2019-05-30T09:06:12.731Z,16.00
2019-05-30T09:08:44.272Z,15.90
2019-05-30T09:11:14.644Z,15.80
2019-05-30T09:13:46.410Z,15.60
2019-05-30T09:16:17.524Z,15.60
2019-05-30T09:18:47.568Z,15.50
2019-05-30T09:21:18.041Z,15.50
2019-05-30T09:23:48.900Z,15.40
2019-05-30T09:26:19.586Z,15.40
2019-05-30T09:28:50.300Z,15.30
2019-05-30T09:31:20.474Z,15.30
2019-05-30T09:33:50.686Z,15.30
2019-05-30T09:36:20.551Z,15.30
2019-05-30T09:38:50.708Z,15.30
2019-05-30T09:41:21.157Z,15.40
2019-05-30T09:43:51.531Z,15.60
2019-05-30T09:46:21.843Z,15.90
2019-05-30T09:48:52.260Z,16.20
2019-05-30T09:51:23.274Z,16.50
2019-05-30T09:53:53.062Z,16.70
2019-05-30T09:56:23.029Z,16.90
2019-05-30T09:58:53.302Z,17.10
2019-05-30T10:01:23.520Z,17.00
2019-05-30T10:03:54.512Z,17.00
2019-05-30T10:06:29.476Z,16.80
2019-05-30T10:08:57.015Z,16.70
2019-05-30T10:11:27.590Z,16.60
2019-05-30T10:13:57.341Z,16.50
2019-05-30T10:16:27.925Z,16.40
2019-05-30T10:18:57.766Z,16.40
2019-05-30T10:21:28.267Z,16.30
2019-05-30T10:23:58.830Z,16.30
2019-05-30T10:26:29.523Z,16.20
2019-05-30T10:29:00.116Z,16.20
2019-05-30T10:31:30.040Z,16.40
2019-05-30T10:34:00.452Z,16.70
2019-05-30T10:36:43.369Z,17.20
2019-05-30T10:39:02.846Z,17.50
2019-05-30T10:41:33.247Z,18.00
2019-05-30T10:44:03.564Z,18.10
2019-05-30T10:46:33.790Z,17.90
2019-05-30T10:49:03.326Z,18.00
2019-05-30T10:51:33.529Z,17.90
2019-05-30T10:54:03.632Z,17.70
2019-05-30T10:56:34.193Z,17.50
2019-05-30T10:59:04.341Z,17.40
2019-05-30T11:01:34.106Z,17.30
2019-05-30T11:04:03.826Z,17.30
2019-05-30T11:07:10.324Z,17.40
2019-05-30T11:09:34.819Z,17.70
2019-05-30T11:12:05.460Z,17.80
2019-05-30T11:14:35.338Z,17.80
2019-05-30T11:17:05.673Z,17.80
2019-05-30T11:19:36.074Z,17.80
2019-05-30T11:22:06.517Z,17.80
2019-05-30T11:24:36.879Z,17.70
2019-05-30T11:27:07.669Z,17.70
2019-05-30T11:29:38.399Z,17.70
2019-05-30T11:32:08.246Z,17.60
2019-05-30T11:34:37.998Z,17.50
2019-05-30T11:37:18.708Z,17.40
2019-05-30T11:39:39.833Z,17.50
2019-05-30T11:42:10.196Z,17.80
2019-05-30T11:44:40.601Z,17.80
2019-05-30T11:47:10.985Z,18.20
2019-05-30T11:49:41.582Z,18.40
2019-05-30T11:52:12.232Z,18.00
2019-05-30T11:54:42.540Z,17.90
2019-05-30T11:57:12.936Z,17.80
2019-05-30T11:59:43.268Z,17.70
2019-05-30T12:02:13.954Z,17.70
2019-05-30T12:04:43.867Z,17.70
2019-05-30T12:07:13.981Z,17.70
2019-05-30T12:09:43.636Z,17.70
2019-05-30T12:12:13.614Z,17.70
2019-05-30T12:14:43.244Z,17.60
2019-05-30T12:17:13.994Z,17.70
2019-05-30T12:19:44.659Z,18.00
2019-05-30T12:22:14.646Z,18.20
2019-05-30T12:24:44.818Z,18.20
2019-05-30T12:27:15.621Z,18.00
2019-05-30T12:29:45.907Z,17.80
2019-05-30T12:32:16.764Z,18.00
2019-05-30T12:34:47.265Z,18.20
2019-05-30T12:37:17.505Z,18.00
2019-05-30T12:40:06.515Z,18.00
2019-05-30T12:42:36.954Z,18.00
2019-05-30T12:45:09.065Z,18.00
2019-05-30T12:47:39.614Z,18.00
2019-05-30T12:50:10.988Z,17.80
2019-05-30T12:52:41.334Z,17.80
2019-05-30T12:55:12.438Z,17.80
2019-05-30T12:57:42.414Z,17.80
2019-05-30T13:00:18.190Z,18.10
2019-05-30T13:02:46.118Z,18.30
2019-05-30T13:05:16.399Z,18.60
2019-05-30T13:07:46.992Z,18.90
2019-05-30T13:10:18.516Z,19.20
2019-05-30T13:12:48.891Z,19.40
2019-05-30T13:15:19.866Z,19.70
2019-05-30T13:17:50.164Z,19.50
2019-05-30T13:20:20.370Z,19.30
2019-05-30T13:22:50.396Z,19.10
2019-05-30T13:25:22.707Z,19.00
2019-05-30T13:27:53.794Z,19.00
2019-05-30T13:30:24.705Z,19.00
2019-05-30T13:32:54.688Z,18.90
2019-05-30T13:35:24.896Z,18.70
2019-05-30T13:37:55.009Z,18.80
2019-05-30T13:40:26.027Z,18.90
2019-05-30T13:42:57.644Z,19.00
2019-05-30T13:45:28.479Z,18.80
2019-05-30T13:48:00.263Z,18.80
2019-05-30T13:50:31.063Z,18.60
2019-05-30T13:53:01.036Z,18.50
2019-05-30T13:55:31.683Z,18.50
2019-05-30T13:58:03.570Z,18.50
2019-05-30T14:00:34.120Z,18.50
2019-05-30T14:03:04.571Z,18.50
2019-05-30T14:05:34.926Z,18.50
2019-05-30T14:08:09.252Z,18.70
2019-05-30T14:10:37.927Z,18.70
2019-05-30T14:13:08.975Z,18.70
2019-05-30T14:15:38.837Z,18.60
2019-05-30T14:18:09.076Z,18.60
2019-05-30T14:20:39.566Z,18.50
2019-05-30T14:23:09.551Z,18.40
2019-05-30T14:25:39.814Z,18.40
2019-05-30T14:28:10.167Z,18.30
2019-05-30T14:30:40.064Z,18.30
2019-05-30T14:33:10.645Z,18.30
2019-05-30T14:35:41.428Z,18.30
2019-05-30T14:38:12.845Z,18.30
2019-05-30T14:40:43.611Z,18.20
2019-05-30T14:43:18.917Z,18.20
2019-05-30T14:45:48.946Z,18.20
2019-05-30T14:48:18.566Z,18.20
2019-05-30T14:50:49.605Z,18.20
2019-05-30T14:53:19.603Z,18.20
2019-05-30T14:55:49.499Z,18.20
2019-05-30T14:58:20.227Z,18.40
2019-05-30T15:00:50.941Z,18.70
2019-05-30T15:03:21.466Z,19.00
2019-05-30T15:05:51.329Z,19.10
2019-05-30T15:08:21.616Z,19.30
2019-05-30T15:10:51.979Z,19.40
2019-05-30T15:13:22.573Z,19.40
2019-05-30T15:15:52.724Z,19.40
2019-05-30T15:18:23.418Z,19.40
2019-05-30T15:20:54.262Z,19.30
2019-05-30T15:23:25.003Z,19.30
2019-05-30T15:25:55.202Z,19.30
2019-05-30T15:28:25.217Z,19.30
2019-05-30T15:30:55.783Z,19.40
2019-05-30T15:33:26.473Z,19.50
2019-05-30T15:35:56.433Z,19.60
2019-05-30T15:38:27.046Z,19.60
2019-05-30T15:40:57.277Z,19.60
2019-05-30T15:43:27.556Z,19.60
2019-05-30T15:45:58.206Z,19.70
2019-05-30T15:48:28.528Z,19.60
2019-05-30T15:50:58.812Z,19.40
2019-05-30T15:53:28.776Z,19.20
2019-05-30T15:55:59.532Z,19.00
2019-05-30T15:58:29.562Z,18.80
2019-05-30T16:00:59.996Z,18.70
2019-05-30T16:03:30.597Z,18.70
2019-05-30T16:06:00.696Z,18.70
2019-05-30T16:08:30.630Z,18.80
2019-05-30T16:11:00.539Z,18.90
2019-05-30T16:13:30.086Z,19.00
2019-05-30T16:16:00.539Z,19.10
2019-05-30T16:18:30.142Z,19.10
2019-05-30T16:21:02.214Z,19.00
2019-05-30T16:23:32.392Z,19.00
2019-05-30T16:26:02.583Z,19.00
2019-05-30T16:28:33.121Z,19.00
2019-05-30T16:31:03.329Z,19.00
2019-05-30T16:33:33.895Z,19.00
2019-05-30T16:36:04.542Z,18.90
2019-05-30T16:38:34.678Z,18.90
2019-05-30T16:41:04.944Z,18.90
2019-05-30T16:43:35.651Z,18.80
2019-05-30T16:46:06.362Z,18.70
2019-05-30T16:48:35.920Z,18.60
2019-05-30T16:51:06.423Z,18.60
2019-05-30T16:53:36.642Z,18.50
2019-05-30T16:56:06.710Z,18.50
2019-05-30T16:58:37.099Z,18.40
2019-05-30T17:01:07.255Z,18.40
2019-05-30T17:03:37.594Z,18.30
2019-05-30T17:06:07.752Z,18.30
2019-05-30T17:08:38.474Z,18.20
2019-05-30T17:11:08.687Z,18.20
2019-05-30T17:13:38.581Z,18.10
2019-05-30T17:16:09.196Z,18.10
2019-05-30T17:18:39.307Z,18.00
2019-05-30T17:21:09.802Z,18.00
2019-05-30T17:23:40.077Z,17.90
2019-05-30T17:26:10.245Z,17.80
2019-05-30T17:28:40.499Z,17.70
2019-05-30T17:31:11.068Z,17.70
2019-05-30T17:33:41.394Z,17.60
2019-05-30T17:36:11.842Z,17.50
2019-05-30T17:38:42.360Z,17.50
2019-05-30T17:41:12.894Z,17.40
2019-05-30T17:43:43.712Z,17.40
2019-05-30T17:48:43.603Z,17.20
2019-05-30T17:51:14.394Z,17.10
2019-05-30T17:53:44.348Z,17.10
2019-05-30T17:56:14.923Z,17.00
2019-05-30T17:58:45.575Z,16.90
2019-05-30T18:01:15.286Z,16.80
2019-05-30T18:03:45.125Z,16.80
2019-05-30T18:06:15.932Z,16.60
2019-05-30T18:08:46.790Z,16.50
2019-05-30T18:11:17.036Z,16.40
2019-05-30T18:13:47.819Z,16.60
2019-05-30T18:16:18.351Z,16.60
2019-05-30T18:18:48.678Z,16.60
2019-05-30T18:21:19.382Z,16.60
2019-05-30T18:23:49.227Z,16.60
2019-05-30T18:26:19.692Z,16.50
2019-05-30T18:28:49.443Z,16.50
2019-05-30T18:31:20.059Z,16.40
2019-05-30T18:33:50.713Z,16.40
2019-05-30T18:36:22.322Z,16.20
2019-05-30T18:38:52.753Z,16.30
2019-05-30T18:41:24.537Z,16.20
2019-05-30T18:43:55.503Z,16.00
2019-05-30T18:46:25.218Z,16.00
2019-05-30T18:48:56.068Z,16.00
2019-05-30T18:51:26.666Z,15.90
2019-05-30T18:53:57.588Z,15.90
2019-05-30T18:56:28.731Z,15.80
2019-05-30T18:58:59.302Z,15.70
2019-05-30T19:01:29.694Z,15.60
2019-05-30T19:04:00.570Z,15.50
2019-05-30T19:06:31.932Z,15.50
2019-05-30T19:09:02.616Z,15.40
2019-05-30T19:11:36.976Z,15.30
2019-05-30T19:14:07.988Z,15.30
2019-05-30T19:16:38.319Z,15.20
2019-05-30T19:19:08.663Z,15.20
2019-05-30T19:21:39.597Z,15.10
2019-05-30T19:24:09.701Z,15.00
2019-05-30T19:26:39.805Z,14.90
2019-05-30T19:29:10.324Z,14.80
2019-05-30T19:31:40.354Z,14.80
2019-05-30T19:34:10.897Z,14.70
2019-05-30T19:36:41.009Z,14.60
2019-05-30T19:39:11.135Z,14.60
2019-05-30T19:41:55.610Z,14.50
2019-05-30T19:44:13.423Z,14.40
2019-05-30T19:46:43.544Z,14.40
2019-05-30T19:49:14.449Z,14.30
2019-05-30T19:51:44.504Z,14.20
2019-05-30T19:54:15.038Z,14.10
2019-05-30T19:56:48.538Z,14.10
2019-05-30T19:59:18.918Z,14.00
2019-05-30T20:01:49.737Z,13.90
2019-05-30T20:04:20.599Z,13.80
2019-05-30T20:06:51.058Z,13.70
2019-05-30T20:09:21.185Z,13.70
2019-05-30T20:12:02.623Z,13.60
2019-05-30T20:14:24.059Z,13.60
2019-05-30T20:16:54.152Z,13.50
2019-05-30T20:19:24.577Z,13.50
2019-05-30T20:21:55.304Z,13.40
2019-05-30T20:24:26.082Z,13.40
2019-05-30T20:26:56.544Z,13.30
2019-05-30T20:29:27.510Z,13.30
2019-05-30T20:31:58.145Z,13.20
2019-05-30T20:34:28.509Z,13.20
2019-05-30T20:36:58.726Z,13.10
2019-05-30T20:39:29.551Z,13.10
2019-05-30T20:42:00.408Z,13.10
2019-05-30T20:44:34.839Z,13.10
2019-05-30T20:47:06.052Z,13.00
2019-05-30T20:49:37.132Z,13.00
2019-05-30T20:52:08.301Z,13.00
2019-05-30T20:54:39.266Z,13.00
2019-05-30T20:57:10.611Z,12.90
2019-05-30T20:59:42.695Z,12.90
2019-05-30T21:02:14.009Z,12.90
2019-05-30T21:04:47.906Z,12.90
2019-05-30T21:07:19.219Z,12.80
2019-05-30T21:09:53.225Z,12.80
2019-05-30T21:12:36.952Z,12.80
2019-05-30T21:15:00.507Z,12.70
2019-05-30T21:17:35.654Z,12.60
2019-05-30T21:20:10.969Z,12.60
2019-05-30T21:22:40.195Z,12.60
2019-05-30T21:25:10.470Z,12.50
2019-05-30T21:27:41.013Z,12.50
2019-05-30T21:30:13.327Z,12.50
2019-05-30T21:32:46.279Z,12.40
2019-05-30T21:35:17.216Z,12.40
2019-05-30T21:37:48.000Z,12.40
2019-05-30T21:40:18.863Z,12.30
2019-05-30T21:43:03.087Z,12.30
2019-05-30T21:45:21.533Z,12.20
2019-05-30T21:47:52.041Z,12.20
2019-05-30T21:50:21.862Z,12.20
2019-05-30T21:52:52.525Z,12.10
2019-05-30T21:55:22.947Z,12.10
2019-05-30T21:57:52.829Z,12.00
2019-05-30T22:01:04.004Z,12.00
2019-05-30T22:03:35.679Z,11.80
2019-05-30T22:06:07.058Z,11.80
2019-05-30T22:08:38.329Z,11.70
2019-05-30T22:11:09.000Z,11.70
2019-05-30T22:13:39.613Z,11.60
2019-05-30T22:16:09.622Z,11.60
2019-05-30T22:18:39.737Z,11.50
2019-05-30T22:21:10.598Z,11.50
2019-05-30T22:23:42.182Z,11.50
2019-05-30T22:26:12.945Z,11.50
2019-05-30T22:28:42.663Z,11.40
2019-05-30T22:31:13.568Z,11.40
2019-05-30T22:33:44.678Z,11.30
2019-05-30T22:36:15.432Z,11.20
2019-05-30T22:38:46.783Z,11.20
2019-05-30T22:41:17.463Z,11.20
2019-05-30T22:43:48.311Z,11.20
2019-05-30T22:46:19.063Z,11.10
2019-05-30T22:48:50.518Z,11.10
2019-05-30T22:51:20.687Z,11.10
2019-05-30T22:53:51.337Z,11.10
2019-05-30T22:56:21.962Z,11.10
2019-05-30T22:58:52.013Z,11.10
2019-05-30T23:01:22.341Z,11.10
2019-05-30T23:03:54.012Z,11.00
2019-05-30T23:06:25.113Z,11.00
2019-05-30T23:08:56.977Z,10.90
2019-05-30T23:11:27.787Z,11.00
2019-05-30T23:13:57.797Z,11.00
2019-05-30T23:16:28.048Z,10.90
2019-05-30T23:18:58.978Z,11.00
2019-05-30T23:21:29.976Z,10.90
2019-05-30T23:24:00.310Z,10.90
2019-05-30T23:26:31.277Z,10.90
2019-05-30T23:29:01.189Z,10.90
2019-05-30T23:31:31.840Z,10.90
2019-05-30T23:34:02.359Z,10.80
2019-05-30T23:36:32.720Z,10.80
2019-05-30T23:39:03.157Z,10.90
2019-05-30T23:41:33.290Z,10.80
2019-05-30T23:44:11.109Z,10.80
2019-05-30T23:46:55.564Z,10.80
2019-05-30T23:49:26.116Z,10.80
2019-05-30T23:51:56.459Z,10.70
2019-05-30T23:54:26.939Z,10.70
2019-05-30T23:56:58.621Z,10.80
2019-05-30T23:59:29.343Z,10.80
